Time;durP1;ratioP1;P1;durP2;ratioP2;P2;SDS_P1;SDS_P2;PMS_P1;PMS_P2;Temp;Humidity;BMP_temperature;BMP_pressure;BME280_temperature;BME280_humidity;BME280_pressure;Samples;Min_cycle;Max_cycle;Signal;HPM_P1;HPM_P2
2023/04/25 00:01:04;;;;;;;13.30;4.20;;;;;;;7.75;100.00;100953.63;5040584;28;20100;-62
2023/04/25 00:03:32;;;;;;;11.70;3.50;;;;;;;7.74;100.00;100962.81;5055569;28;20049;-61
2023/04/25 00:06:01;;;;;;;13.95;3.85;;;;;;;7.74;100.00;100963.63;5018448;28;20059;-61
2023/04/25 00:08:30;;;;;;;10.27;3.53;;;;;;;7.72;100.00;100959.50;5050047;28;20050;-60
2023/04/25 00:10:59;;;;;;;9.07;3.20;;;;;;;7.72;100.00;100971.19;5034267;28;20584;-61
2023/04/25 00:13:27;;;;;;;12.10;3.58;;;;;;;7.71;100.00;100966.00;5035584;28;20076;-62
2023/04/25 00:15:56;;;;;;;13.13;4.05;;;;;;;7.68;100.00;100961.91;5035839;28;20096;-62
2023/04/25 00:18:24;;;;;;;11.25;3.60;;;;;;;7.67;100.00;100969.22;5035083;28;20049;-61
2023/04/25 00:20:52;;;;;;;11.88;3.60;;;;;;;7.65;100.00;100971.34;5026387;28;20045;-61
2023/04/25 00:23:19;;;;;;;10.38;3.90;;;;;;;7.66;100.00;100972.16;5045329;28;20075;-62
2023/04/25 00:25:50;;;;;;;10.23;3.45;;;;;;;7.67;100.00;100979.22;5053988;28;20045;-61
2023/04/25 00:28:18;;;;;;;12.65;3.80;;;;;;;7.65;100.00;100982.19;5042581;28;20053;-61
2023/04/25 00:30:46;;;;;;;8.45;3.30;;;;;;;7.64;100.00;100980.53;5035687;28;20416;-62
2023/04/25 00:33:14;;;;;;;9.65;3.47;;;;;;;7.64;100.00;100983.25;5049979;28;20081;-60
2023/04/25 00:35:42;;;;;;;12.63;3.85;;;;;;;7.63;100.00;100984.34;5054182;28;20095;-60
2023/04/25 00:38:10;;;;;;;9.52;3.60;;;;;;;7.63;100.00;100983.50;5045118;28;20107;-59
2023/04/25 00:40:38;;;;;;;6.35;2.92;;;;;;;7.58;100.00;100986.13;5036623;28;20057;-61
2023/04/25 00:43:05;;;;;;;10.15;3.55;;;;;;;7.57;100.00;100985.28;5035828;28;20053;-61
2023/04/25 00:45:36;;;;;;;11.70;3.45;;;;;;;7.57;100.00;100987.19;5049255;28;20070;-61
2023/04/25 00:48:05;;;;;;;11.40;3.45;;;;;;;7.60;100.00;100978.56;5034462;28;20411;-61
2023/04/25 00:50:36;;;;;;;13.50;3.85;;;;;;;7.60;100.00;100982.13;5034648;28;20045;-62
2023/04/25 00:53:04;;;;;;;7.80;3.15;;;;;;;7.59;100.00;100977.75;5024986;28;20075;-61
2023/04/25 00:55:34;;;;;;;11.27;3.70;;;;;;;7.59;100.00;100985.06;5017434;28;20449;-61
2023/04/25 00:58:02;;;;;;;12.18;3.88;;;;;;;7.59;100.00;100985.88;5034803;28;20045;-61
2023/04/25 01:00:30;;;;;;;9.05;3.33;;;;;;;7.58;100.00;100983.44;5033601;28;20047;-61
2023/04/25 01:02:58;;;;;;;13.90;3.80;;;;;;;7.55;100.00;100987.44;5038129;28;20452;-64
2023/04/25 01:05:26;;;;;;;14.25;4.00;;;;;;;7.53;100.00;100984.16;5032767;28;20053;-62
2023/04/25 01:07:54;;;;;;;11.65;3.67;;;;;;;7.52;100.00;100984.38;5032593;28;20125;-63
2023/04/25 01:10:22;;;;;;;12.35;3.42;;;;;;;7.50;100.00;100984.63;5017176;28;20048;-60
2023/04/25 01:12:50;;;;;;;11.40;4.00;;;;;;;7.48;100.00;100981.34;5033532;28;20053;-62
2023/04/25 01:15:18;;;;;;;10.65;3.70;;;;;;;7.49;100.00;100987.59;5037256;28;20094;-61
2023/04/25 01:17:46;;;;;;;12.20;3.80;;;;;;;7.47;100.00;100993.25;5034385;28;20096;-62
2023/04/25 01:20:14;;;;;;;14.20;4.20;;;;;;;7.44;100.00;100985.63;5033522;28;20111;-61
2023/04/25 01:22:43;;;;;;;12.80;4.30;;;;;;;7.42;100.00;100988.56;5033054;28;20057;-62
2023/04/25 01:25:11;;;;;;;13.73;3.72;;;;;;;7.41;100.00;100996.94;5016259;28;20056;-61
2023/04/25 01:27:40;;;;;;;11.13;3.60;;;;;;;7.37;100.00;100995.78;5026368;28;20044;-61
2023/04/25 01:30:08;;;;;;;11.48;3.67;;;;;;;7.36;100.00;100994.13;5036902;28;20553;-61
2023/04/25 01:32:39;;;;;;;12.48;4.68;;;;;;;7.34;100.00;101002.50;5052868;28;20505;-63
2023/04/25 01:35:09;;;;;;;12.93;3.80;;;;;;;7.34;100.00;101007.13;5039845;28;20120;-62
2023/04/25 01:37:42;;;;;;;13.45;3.58;;;;;;;7.32;100.00;101004.63;5036376;28;20057;-60
2023/04/25 01:40:12;;;;;;;14.32;3.80;;;;;;;7.34;100.00;101012.53;5050946;28;20055;-61
2023/04/25 01:42:42;;;;;;;12.88;4.28;;;;;;;7.33;100.00;101005.44;5043033;28;20052;-63
2023/04/25 01:45:12;;;;;;;12.63;4.10;;;;;;;7.33;100.00;101011.69;5048879;28;20041;-61
2023/04/25 01:47:42;;;;;;;11.32;4.05;;;;;;;7.31;100.00;101011.13;5048848;28;20046;-62
2023/04/25 01:50:11;;;;;;;12.32;3.80;;;;;;;7.32;100.00;101009.25;5036725;28;20413;-61
2023/04/25 01:52:39;;;;;;;14.77;3.90;;;;;;;7.31;100.00;101013.00;5053569;28;20119;-64
2023/04/25 01:55:08;;;;;;;14.55;4.70;;;;;;;7.31;100.00;101007.56;5014260;28;20061;-62
2023/04/25 01:57:39;;;;;;;10.55;4.00;;;;;;;7.30;100.00;101012.19;5030460;28;20045;-62
2023/04/25 02:00:09;;;;;;;14.27;3.88;;;;;;;7.32;100.00;101014.66;5001924;28;20073;-61
2023/04/25 02:02:39;;;;;;;14.00;3.97;;;;;;;7.29;100.00;101020.53;5027209;28;20448;-61
2023/04/25 02:05:17;;;;;;;12.77;4.38;;;;;;;7.25;100.00;101021.03;5049454;28;20512;-61
2023/04/25 02:07:45;;;;;;;15.63;4.35;;;;;;;7.23;100.00;101028.56;5032763;28;20124;-62
2023/04/25 02:10:13;;;;;;;10.43;4.18;;;;;;;7.21;100.00;101021.75;5016313;28;20049;-62
2023/04/25 02:12:53;;;;;;;14.15;4.15;;;;;;;7.20;100.00;101023.66;5057338;28;20053;-62
2023/04/25 02:15:41;;;;;;;17.60;5.35;;;;;;;7.17;100.00;101023.31;5062819;28;20064;-62
2023/04/25 02:18:16;;;;;;;17.23;4.45;;;;;;;7.15;100.00;101020.84;5039394;28;20045;-61
2023/04/25 02:20:47;;;;;;;15.02;4.30;;;;;;;7.14;100.00;101019.16;5038062;28;20045;-63
2023/04/25 02:23:18;;;;;;;19.30;4.30;;;;;;;7.14;100.00;101026.47;5050211;28;20044;-61
2023/04/25 02:25:46;;;;;;;18.20;5.25;;;;;;;7.11;100.00;101030.50;5042401;28;20480;-62
2023/04/25 02:28:14;;;;;;;19.27;4.70;;;;;;;7.10;100.00;101028.88;5038927;28;20041;-62
2023/04/25 02:30:42;;;;;;;15.13;4.50;;;;;;;7.09;100.00;101031.81;5043412;28;20191;-61
2023/04/25 02:33:10;;;;;;;15.77;4.57;;;;;;;7.08;100.00;101030.16;5040345;28;20080;-61
2023/04/25 02:35:37;;;;;;;13.43;4.43;;;;;;;7.07;100.00;101029.34;5040503;28;20049;-61
2023/04/25 02:38:05;;;;;;;15.00;4.50;;;;;;;7.07;100.00;101034.78;5033481;28;20057;-61
2023/04/25 02:40:33;;;;;;;19.50;5.20;;;;;;;7.05;100.00;101031.47;5024937;28;20052;-63
2023/04/25 02:43:01;;;;;;;13.60;4.20;;;;;;;7.04;100.00;101037.94;5034818;28;20053;-61
2023/04/25 02:45:29;;;;;;;13.57;4.40;;;;;;;7.03;100.00;101033.59;5032409;28;20057;-61
2023/04/25 02:47:56;;;;;;;14.48;4.70;;;;;;;7.01;100.00;101035.72;5015956;28;20044;-62
2023/04/25 02:50:24;;;;;;;14.20;4.80;;;;;;;7.00;100.00;101034.09;5034691;28;20094;-60
2023/04/25 02:52:52;;;;;;;16.25;4.88;;;;;;;6.97;100.00;101024.53;5031850;28;20067;-62
2023/04/25 02:55:26;;;;;;;16.75;5.05;;;;;;;6.94;100.00;101030.41;5017000;28;20536;-64
2023/04/25 02:57:56;;;;;;;15.80;4.38;;;;;;;6.94;100.00;101029.59;5049123;28;20041;-62
2023/04/25 03:00:37;;;;;;;16.73;5.05;;;;;;;6.90;100.00;101031.94;5031671;28;20046;-60
2023/04/25 03:03:05;;;;;;;15.93;4.93;;;;;;;6.91;100.00;101027.38;5030648;28;20489;-61
2023/04/25 03:05:33;;;;;;;14.50;4.80;;;;;;;6.90;100.00;101029.25;5031417;28;20084;-61
2023/04/25 03:08:01;;;;;;;14.50;4.68;;;;;;;6.89;100.00;101038.44;5032905;28;20060;-61
2023/04/25 03:10:31;;;;;;;17.73;4.75;;;;;;;6.88;100.00;101036.81;5031351;28;20216;-60
2023/04/25 03:13:03;;;;;;;14.27;4.75;;;;;;;6.88;100.00;101035.97;5000259;28;20382;-62
2023/04/25 03:15:31;;;;;;;19.98;5.95;;;;;;;6.85;100.00;101034.56;5047174;28;20048;-61
2023/04/25 03:18:00;;;;;;;22.95;5.38;;;;;;;6.83;100.00;101032.09;5048619;28;20103;-64
2023/04/25 03:20:28;;;;;;;19.70;5.70;;;;;;;6.82;100.00;101035.03;5031773;28;20067;-57
2023/04/25 03:22:56;;;;;;;15.68;4.63;;;;;;;6.82;100.00;101037.75;5032580;28;20049;-61
2023/04/25 03:25:23;;;;;;;13.82;4.45;;;;;;;6.82;100.00;101041.28;5031914;28;20465;-62
2023/04/25 03:27:51;;;;;;;16.88;4.53;;;;;;;6.82;100.00;101041.28;5031823;28;20073;-62
2023/04/25 03:30:19;;;;;;;14.45;4.82;;;;;;;6.83;100.00;101034.81;5013948;28;20165;-60
2023/04/25 03:32:48;;;;;;;18.55;4.78;;;;;;;6.84;100.00;101035.63;5046428;28;20046;-60
2023/04/25 03:35:17;;;;;;;15.68;4.35;;;;;;;6.83;100.00;101039.38;5039055;28;20037;-61
2023/04/25 03:37:46;;;;;;;15.85;4.95;;;;;;;6.82;100.00;101037.75;5056018;28;20102;-62
2023/04/25 03:40:19;;;;;;;15.23;4.65;;;;;;;6.81;100.00;101045.06;5035553;28;20057;-63
2023/04/25 03:43:16;;;;;;;18.40;5.28;;;;;;;6.79;100.00;101047.16;5039560;28;20141;-61
2023/04/25 03:45:50;;;;;;;19.95;4.90;;;;;;;6.82;100.00;101049.41;5035213;28;20481;-61
2023/04/25 03:48:22;;;;;;;14.48;4.28;;;;;;;6.82;100.00;101038.56;5019510;28;20493;-64
2023/04/25 03:50:50;;;;;;;16.98;4.95;;;;;;;6.83;100.00;101048.34;5035190;28;20104;-60
2023/04/25 03:53:18;;;;;;;15.50;5.10;;;;;;;6.83;100.00;101042.94;5020036;28;20489;-58
2023/04/25 03:56:06;;;;;;;17.70;4.95;;;;;;;6.85;100.00;101037.25;5045390;28;20041;-61
2023/04/25 03:58:36;;;;;;;16.38;4.70;;;;;;;6.83;100.00;101037.53;5032600;28;20049;-62
2023/04/25 04:01:07;;;;;;;20.02;5.30;;;;;;;6.82;100.00;101038.56;5053853;28;20048;-59
2023/04/25 04:03:37;;;;;;;16.17;5.13;;;;;;;6.82;100.00;101043.97;5057799;28;20565;-64
2023/04/25 04:06:07;;;;;;;15.77;4.40;;;;;;;6.83;100.00;101048.34;5031821;28;20049;-61
2023/04/25 04:08:41;;;;;;;19.38;5.15;;;;;;;6.82;100.00;101057.53;5033450;28;20065;-66
2023/04/25 04:11:10;;;;;;;20.15;4.90;;;;;;;6.81;100.00;101055.06;5016372;28;20099;-60
2023/04/25 04:13:38;;;;;;;14.02;4.95;;;;;;;6.81;100.00;101055.06;5032782;28;20052;-61
2023/04/25 04:16:07;;;;;;;17.33;5.30;;;;;;;6.80;100.00;101056.94;5016367;28;20061;-63
2023/04/25 04:18:35;;;;;;;13.45;4.72;;;;;;;6.77;100.00;101062.81;5031972;28;20053;-63
2023/04/25 04:21:03;;;;;;;16.52;5.07;;;;;;;6.78;100.00;101063.66;5033832;28;20433;-60
2023/04/25 04:23:34;;;;;;;16.50;4.75;;;;;;;6.77;100.00;101067.44;5050634;28;20084;-61
2023/04/25 04:26:07;;;;;;;17.30;5.13;;;;;;;6.75;100.00;101064.13;5034496;28;20041;-65
2023/04/25 04:28:55;;;;;;;21.52;5.65;;;;;;;6.76;100.00;101065.78;5046796;28;20048;-61
2023/04/25 04:31:37;;;;;;;17.33;5.50;;;;;;;6.75;100.00;101075.78;5024021;28;20406;-63
2023/04/25 04:34:05;;;;;;;17.85;4.90;;;;;;;6.75;100.00;101074.97;5033952;28;20069;-61
2023/04/25 04:36:34;;;;;;;24.90;5.68;;;;;;;6.72;100.00;101070.84;5034025;28;20053;-60
2023/04/25 04:39:04;;;;;;;15.63;4.80;;;;;;;6.72;100.00;101084.38;5052105;28;20049;-61
2023/04/25 04:41:45;;;;;;;15.00;5.10;;;;;;;6.72;100.00;101084.38;5036988;28;20395;-63
2023/04/25 04:44:29;;;;;;;16.48;5.07;;;;;;;6.73;100.00;101088.72;5048592;28;20490;-62
2023/04/25 04:47:13;;;;;;;14.00;5.55;;;;;;;6.73;100.00;101090.63;5036599;28;20551;-64
2023/04/25 04:50:07;;;;;;;14.88;5.15;;;;;;;6.74;100.00;101097.69;5050150;28;20509;-62
2023/04/25 04:52:55;;;;;;;17.60;6.18;;;;;;;6.68;100.00;101090.50;5034178;28;20048;-62
2023/04/25 04:55:55;;;;;;;22.58;5.63;;;;;;;6.61;100.00;101085.19;5016109;28;20079;-61
2023/04/25 04:58:23;;;;;;;16.92;5.60;;;;;;;6.56;100.00;101093.19;5034253;28;20045;-61
2023/04/25 05:01:26;;;;;;;20.10;6.03;;;;;;;6.54;100.00;101101.56;5038448;28;20385;-62
2023/04/25 05:04:04;;;;;;;21.00;5.93;;;;;;;6.55;100.00;101096.97;5033390;28;20045;-62
2023/04/25 05:07:03;;;;;;;22.83;5.70;;;;;;;6.59;100.00;101108.97;5019283;28;20066;-62
2023/04/25 05:10:06;;;;;;;20.42;5.50;;;;;;;6.63;100.00;101112.88;5029668;28;20120;-60
2023/04/25 05:12:36;;;;;;;16.17;5.07;;;;;;;6.66;100.00;101115.09;5034372;28;20057;-61
2023/04/25 05:15:23;;;;;;;19.85;5.80;;;;;;;6.67;100.00;101126.78;5035107;28;20069;-64
2023/04/25 05:18:15;;;;;;;20.40;5.30;;;;;;;6.70;100.00;101131.72;5009387;28;20468;-64
2023/04/25 05:20:47;;;;;;;20.63;5.18;;;;;;;6.71;100.00;101127.94;5038736;28;20124;-62
2023/04/25 05:23:21;;;;;;;20.77;5.40;;;;;;;6.71;100.00;101128.78;5038048;28;20044;-61
2023/04/25 05:25:56;;;;;;;23.33;5.75;;;;;;;6.72;100.00;101149.38;5036855;28;20486;-61
2023/04/25 05:28:38;;;;;;;17.30;4.40;;;;;;;6.73;100.00;101147.47;5031887;28;20049;-61
2023/04/25 05:31:10;;;;;;;16.55;5.25;;;;;;;6.73;100.00;101147.47;5025190;28;20152;-63
2023/04/25 05:34:00;;;;;;;16.77;5.20;;;;;;;6.73;100.00;101153.72;4998815;28;20045;-61
2023/04/25 05:36:39;;;;;;;21.17;5.68;;;;;;;6.73;100.00;101150.19;5036224;28;20053;-63
2023/04/25 05:39:08;;;;;;;18.55;5.47;;;;;;;6.72;100.00;101152.06;5048599;28;20147;-62
2023/04/25 05:41:55;;;;;;;18.23;4.65;;;;;;;6.70;100.00;101159.59;5032684;28;20042;-61
2023/04/25 05:44:41;;;;;;;16.40;5.05;;;;;;;6.72;100.00;101162.09;5033284;28;20056;-62
2023/04/25 05:47:27;;;;;;;19.63;4.28;;;;;;;6.73;100.00;101164.53;5031630;28;20099;-61
2023/04/25 05:50:05;;;;;;;16.92;4.90;;;;;;;6.75;100.00;101164.31;5034094;28;20053;-63
2023/04/25 05:53:00;;;;;;;18.76;4.72;;;;;;;6.77;100.00;101164.91;4866882;28;10001006;-63
2023/04/25 05:55:51;;;;;;;15.05;4.90;;;;;;;6.76;99.09;101164.09;5054851;28;20365;-62
2023/04/25 05:58:24;;;;;;;15.32;4.68;;;;;;;6.76;98.60;101169.50;5028295;28;20167;-63
2023/04/25 06:00:54;;;;;;;16.45;4.70;;;;;;;6.76;98.12;101171.41;5045780;28;20100;-64
2023/04/25 06:03:22;;;;;;;14.93;4.38;;;;;;;6.76;97.51;101174.94;5033510;28;20073;-64
2023/04/25 06:05:51;;;;;;;14.00;4.25;;;;;;;6.77;96.95;101175.75;5008613;28;20581;-64
2023/04/25 06:08:19;;;;;;;13.10;4.68;;;;;;;6.77;97.37;101175.75;5040431;28;20061;-64
2023/04/25 06:10:48;;;;;;;15.18;4.20;;;;;;;6.79;97.65;101177.16;5031091;28;20337;-64
2023/04/25 06:13:16;;;;;;;15.40;4.38;;;;;;;6.78;97.06;101186.34;5044979;28;20081;-64
2023/04/25 06:15:44;;;;;;;13.75;4.18;;;;;;;6.78;96.94;101189.06;5035357;28;20050;-62
2023/04/25 06:18:12;;;;;;;16.88;4.75;;;;;;;6.78;96.66;101182.81;5032500;28;20060;-62
2023/04/25 06:20:40;;;;;;;14.80;4.50;;;;;;;6.77;96.21;101181.97;5052492;28;20076;-63
2023/04/25 06:23:07;;;;;;;13.10;4.68;;;;;;;6.81;96.09;101185.06;5050319;28;21966;-63
2023/04/25 06:26:00;;;;;;;14.68;4.22;;;;;;;6.81;95.75;101183.19;5036099;28;20141;-64
2023/04/25 06:28:29;;;;;;;14.70;4.20;;;;;;;6.77;95.86;101186.59;5033342;28;20061;-64
2023/04/25 06:30:57;;;;;;;9.40;3.70;;;;;;;6.73;96.02;101188.91;5029234;28;20052;-63
2023/04/25 06:33:25;;;;;;;16.05;4.03;;;;;;;6.73;96.11;101188.91;5034449;28;20472;-63
2023/04/25 06:35:54;;;;;;;16.45;4.15;;;;;;;6.73;96.04;101193.50;5021906;28;20073;-62
2023/04/25 06:38:25;;;;;;;15.25;4.47;;;;;;;6.73;95.47;101188.91;4995968;28;20085;-63
2023/04/25 06:40:56;;;;;;;16.00;4.30;;;;;;;6.74;95.87;101195.19;5008127;28;20056;-63
2023/04/25 06:43:25;;;;;;;12.25;3.80;;;;;;;6.74;97.05;101193.28;5011560;28;20469;-64
2023/04/25 06:46:08;;;;;;;12.63;4.13;;;;;;;6.78;96.39;101205.31;5028346;28;20438;-65
2023/04/25 06:48:42;;;;;;;14.50;4.28;;;;;;;6.79;96.46;101198.00;5027056;28;20661;-64
2023/04/25 06:51:13;;;;;;;12.93;4.35;;;;;;;6.80;96.72;101205.06;5047835;28;20052;-62
2023/04/25 06:53:41;;;;;;;12.35;3.30;;;;;;;6.85;96.31;101209.78;5024665;28;20053;-62
2023/04/25 06:56:15;;;;;;;12.23;3.95;;;;;;;6.80;95.00;101214.00;5025277;28;20054;-64
2023/04/25 06:59:02;;;;;;;13.07;3.45;;;;;;;6.88;95.81;101212.00;5054097;28;20037;-63
2023/04/25 07:01:35;;;;;;;13.50;3.65;;;;;;;6.91;93.11;101225.13;5032787;28;20088;-64
2023/04/25 07:04:08;;;;;;;13.30;4.20;;;;;;;6.92;93.23;101227.56;5030949;28;20033;-64
2023/04/25 07:06:43;;;;;;;12.10;3.70;;;;;;;6.98;93.14;101226.66;5015216;28;20046;-61
2023/04/25 07:09:12;;;;;;;11.55;3.95;;;;;;;7.02;92.62;101227.00;5030511;28;20400;-62
2023/04/25 07:11:43;;;;;;;15.90;4.03;;;;;;;7.07;92.47;101229.00;5038286;28;20110;-65
2023/04/25 07:14:11;;;;;;;14.68;4.15;;;;;;;7.07;91.51;101235.28;5039797;28;20128;-64
2023/04/25 07:16:40;;;;;;;10.05;3.88;;;;;;;7.05;91.46;101234.66;5032180;28;20061;-64
2023/04/25 07:19:08;;;;;;;14.15;3.70;;;;;;;7.06;92.50;101238.19;5035272;28;20470;-63
2023/04/25 07:21:36;;;;;;;14.25;3.95;;;;;;;7.08;92.15;101242.31;5016309;28;20040;-61
2023/04/25 07:24:06;;;;;;;15.68;3.90;;;;;;;7.13;93.48;101242.44;5031211;28;20053;-64
2023/04/25 07:26:37;;;;;;;15.27;4.25;;;;;;;7.20;93.06;101245.03;5025153;28;20056;-63
2023/04/25 07:29:23;;;;;;;14.63;4.60;;;;;;;7.20;92.17;101245.03;5036326;28;20056;-62
2023/04/25 07:31:51;;;;;;;13.05;4.07;;;;;;;7.22;92.13;101243.75;5031687;28;20049;-63
2023/04/25 07:34:20;;;;;;;10.55;3.45;;;;;;;7.24;91.34;101251.66;5032012;28;20087;-64
2023/04/25 07:36:49;;;;;;;15.55;4.15;;;;;;;7.24;91.26;101249.75;5048801;28;20102;-63
2023/04/25 07:39:18;;;;;;;13.13;3.85;;;;;;;7.23;89.70;101256.22;5052485;28;20076;-63
2023/04/25 07:41:46;;;;;;;12.82;3.70;;;;;;;7.23;89.43;101260.81;5018117;28;20132;-61
2023/04/25 07:44:20;;;;;;;13.98;3.70;;;;;;;7.28;88.65;101255.53;5009755;28;20050;-62
2023/04/25 07:46:48;;;;;;;14.48;3.70;;;;;;;7.34;86.69;101262.72;5072922;28;20045;-64
2023/04/25 07:49:16;;;;;;;13.73;3.53;;;;;;;7.41;82.77;101265.31;5039055;28;20489;-61
2023/04/25 07:51:45;;;;;;;9.95;2.88;;;;;;;7.47;85.71;101291.47;5055377;28;20167;-64
2023/04/25 07:54:16;;;;;;;12.25;3.10;;;;;;;7.44;80.04;101289.25;5049951;28;20073;-63
2023/04/25 07:56:49;;;;;;;10.52;3.00;;;;;;;7.38;78.74;101290.19;5033221;28;20054;-63
2023/04/25 07:59:24;;;;;;;11.88;3.38;;;;;;;7.40;79.28;101293.47;5040592;28;20049;-63
2023/04/25 08:01:53;;;;;;;11.48;2.70;;;;;;;7.45;80.29;101286.28;5036391;28;20132;-64
2023/04/25 08:04:23;;;;;;;13.50;3.78;;;;;;;7.51;79.41;101289.13;5028388;28;20059;-63
2023/04/25 08:06:58;;;;;;;12.38;3.67;;;;;;;7.51;80.22;101284.53;5021550;28;20042;-61
2023/04/25 08:09:34;;;;;;;13.00;3.25;;;;;;;7.58;79.75;101289.84;5018207;28;20048;-57
2023/04/25 08:12:05;;;;;;;9.93;3.33;;;;;;;7.65;79.44;101291.38;5022537;28;20075;-63
2023/04/25 08:14:36;;;;;;;9.55;2.88;;;;;;;7.69;75.93;101303.38;5051704;28;20053;-61
2023/04/25 08:17:05;;;;;;;16.30;3.53;;;;;;;7.66;72.24;101305.75;5033838;28;20109;-61
2023/04/25 08:19:39;;;;;;;16.50;2.90;;;;;;;7.68;74.16;101307.16;5018099;28;20057;-66
2023/04/25 08:22:09;;;;;;;10.25;3.15;;;;;;;7.76;74.61;101307.84;5037724;28;20099;-62
2023/04/25 08:24:48;;;;;;;13.20;3.22;;;;;;;7.78;73.91;101311.16;5050306;28;20067;-61
2023/04/25 08:27:18;;;;;;;11.48;3.28;;;;;;;7.75;74.46;101309.75;5029409;28;20044;-62
2023/04/25 08:29:46;;;;;;;15.48;3.30;;;;;;;7.77;74.49;101315.78;5037306;28;20044;-61
2023/04/25 08:32:14;;;;;;;16.35;3.55;;;;;;;7.78;73.00;101311.16;5046042;28;20098;-61
2023/04/25 08:34:55;;;;;;;12.38;2.95;;;;;;;7.77;70.33;101314.91;5018544;28;20046;-62
2023/04/25 08:37:23;;;;;;;8.63;2.70;;;;;;;7.81;71.66;101324.25;5053118;28;20496;-61
2023/04/25 08:39:56;;;;;;;10.57;3.05;;;;;;;7.84;73.16;101326.47;5054412;28;20045;-62
2023/04/25 08:42:33;;;;;;;12.45;3.17;;;;;;;7.78;69.48;101316.59;5048396;28;20045;-63
2023/04/25 08:45:03;;;;;;;12.52;3.53;;;;;;;7.73;71.99;101330.03;5053993;28;20123;-61
2023/04/25 08:47:39;;;;;;;15.63;3.75;;;;;;;7.82;77.31;101336.75;5027082;28;20108;-62
2023/04/25 08:50:08;;;;;;;13.32;3.53;;;;;;;7.92;75.15;101336.97;5018294;28;20072;-62
2023/04/25 08:52:40;;;;;;;10.40;3.50;;;;;;;7.85;72.50;101352.56;5018518;28;20077;-63
2023/04/25 08:55:10;;;;;;;14.32;3.25;;;;;;;7.79;72.48;101339.94;5052271;28;20037;-61
2023/04/25 08:57:43;;;;;;;11.30;3.10;;;;;;;7.80;72.98;101357.88;5032908;28;20037;-61
2023/04/25 09:00:12;;;;;;;15.07;3.50;;;;;;;7.85;73.49;101355.28;5030050;28;20440;-58
2023/04/25 09:02:43;;;;;;;12.85;3.70;;;;;;;7.86;75.98;101360.47;5022986;28;20048;-61
2023/04/25 09:05:14;;;;;;;15.23;3.60;;;;;;;7.93;76.48;101356.78;5034069;28;20049;-60
2023/04/25 09:07:42;;;;;;;14.63;3.30;;;;;;;8.00;78.23;101371.06;5014079;28;20037;-62
2023/04/25 09:10:11;;;;;;;16.77;3.85;;;;;;;8.03;78.82;101363.28;5012256;28;20091;-58
2023/04/25 09:12:39;;;;;;;16.67;4.30;;;;;;;8.01;76.39;101373.56;5033994;28;20124;-60
2023/04/25 09:15:10;;;;;;;13.18;3.58;;;;;;;7.99;77.56;101372.97;5038589;28;20037;-61
2023/04/25 09:17:57;;;;;;;17.63;3.78;;;;;;;7.99;79.35;101377.56;5033226;28;20471;-60
2023/04/25 09:20:31;;;;;;;12.57;3.22;;;;;;;7.95;79.06;101381.81;5016827;28;20588;-62
2023/04/25 09:23:03;;;;;;;14.77;3.92;;;;;;;7.92;79.85;101398.56;5033841;28;20497;-60
2023/04/25 09:25:38;;;;;;;14.27;3.45;;;;;;;7.77;84.20;101405.28;5039244;28;20087;-60
2023/04/25 09:28:08;;;;;;;10.73;3.25;;;;;;;7.54;89.59;101419.63;5016720;28;20114;-60
2023/04/25 09:30:36;;;;;;;11.93;3.42;;;;;;;7.33;90.92;101425.59;5024842;28;20054;-60
2023/04/25 09:33:20;;;;;;;9.70;3.03;;;;;;;7.34;92.46;101411.81;5030369;28;20071;-63
2023/04/25 09:35:55;;;;;;;11.23;2.88;;;;;;;7.39;92.52;101417.38;5030766;28;20440;-62
2023/04/25 09:38:46;;;;;;;9.73;2.65;;;;;;;7.42;90.03;101426.91;5036126;28;20058;-62
2023/04/25 09:41:28;;;;;;;12.77;3.17;;;;;;;7.39;92.65;101430.09;5023330;28;20049;-62
2023/04/25 09:44:00;;;;;;;9.75;2.75;;;;;;;7.45;94.30;101421.84;5048762;28;20073;-63
2023/04/25 09:46:38;;;;;;;12.50;2.75;;;;;;;7.50;93.31;101423.84;5018875;28;20396;-61
2023/04/25 09:49:15;;;;;;;6.50;2.40;;;;;;;7.54;90.50;101427.75;5025503;28;20049;-61
2023/04/25 09:51:58;;;;;;;9.43;3.40;;;;;;;7.53;87.59;101418.00;5031627;28;20386;-61
2023/04/25 09:54:31;;;;;;;8.25;2.63;;;;;;;7.59;87.30;101427.88;5049860;28;20049;-62
2023/04/25 09:57:12;;;;;;;8.88;2.67;;;;;;;7.64;83.97;101433.44;5018391;28;20136;-62
2023/04/25 09:59:44;;;;;;;7.93;2.47;;;;;;;7.71;83.51;101427.09;5030983;28;20053;-61
2023/04/25 10:02:14;;;;;;;9.50;2.85;;;;;;;7.80;82.54;101423.81;5032793;28;20053;-61
2023/04/25 10:04:49;;;;;;;7.63;2.47;;;;;;;7.91;84.55;101419.44;5018261;28;20034;-61
2023/04/25 10:07:29;;;;;;;10.23;3.03;;;;;;;7.99;80.76;101419.09;5047155;28;20064;-60
2023/04/25 10:10:04;;;;;;;7.45;2.40;;;;;;;8.03;79.11;101414.00;5031112;28;20041;-60
2023/04/25 10:12:34;;;;;;;7.65;2.60;;;;;;;8.10;79.70;101421.00;5041442;28;20053;-62
2023/04/25 10:15:04;;;;;;;8.93;2.78;;;;;;;8.19;78.88;101426.03;5049418;28;20061;-61
2023/04/25 10:17:32;;;;;;;12.88;3.85;;;;;;;8.24;77.57;101420.72;5040608;28;21852;-61
2023/04/25 10:20:05;;;;;;;12.95;3.25;;;;;;;8.30;74.08;101422.50;5029279;28;20379;-61
2023/04/25 10:22:37;;;;;;;13.23;3.10;;;;;;;8.36;73.41;101426.16;5049418;28;20080;-59
2023/04/25 10:25:05;;;;;;;9.13;2.92;;;;;;;8.41;71.61;101418.94;5033407;28;20049;-61
2023/04/25 10:27:34;;;;;;;13.13;3.05;;;;;;;8.47;72.01;101411.75;5003639;28;20127;-62
2023/04/25 10:30:06;;;;;;;11.25;3.10;;;;;;;8.52;74.79;101404.53;5042523;28;20049;-61
2023/04/25 10:32:36;;;;;;;8.93;3.13;;;;;;;8.61;73.71;101402.28;5033816;28;20466;-61
2023/04/25 10:35:15;;;;;;;8.52;3.03;;;;;;;8.68;71.73;101402.13;5044174;28;20116;-62
2023/04/25 10:37:59;;;;;;;9.07;3.10;;;;;;;8.75;69.20;101413.69;5035781;28;20045;-62
2023/04/25 10:40:28;;;;;;;8.48;2.97;;;;;;;8.82;68.38;101408.09;5035667;28;20378;-62
2023/04/25 10:43:37;;;;;;;10.95;2.92;;;;;;;8.85;67.22;101415.75;5040971;28;20092;-65
2023/04/25 10:46:15;;;;;;;9.55;3.30;;;;;;;8.87;68.60;101422.59;5025194;28;20050;-60
2023/04/25 10:48:53;;;;;;;;;;;;;;;8.84;67.16;101416.84;5023639;28;20046;-62
2023/04/25 10:51:22;;;;;;;7.68;2.85;;;;;;;8.76;64.16;101426.22;5065350;28;20428;-62
2023/04/25 10:53:57;;;;;;;13.45;2.90;;;;;;;8.68;65.29;101445.59;5065607;28;20049;-62
2023/04/25 10:56:28;;;;;;;10.13;3.03;;;;;;;8.41;71.91;101470.53;5033153;28;20045;-62
2023/04/25 10:59:19;;;;;;;11.75;3.47;;;;;;;8.13;77.80;101467.69;5032749;28;20052;-60
2023/04/25 11:01:51;;;;;;;9.25;2.95;;;;;;;7.94;80.40;101458.81;5032290;28;20051;-62
2023/04/25 11:04:36;;;;;;;7.63;2.20;;;;;;;7.91;79.66;101476.41;5032741;28;20045;-60
2023/04/25 11:07:36;;;;;;;7.95;2.80;;;;;;;7.78;80.96;101463.06;5032696;28;20080;-61
2023/04/25 11:10:04;;;;;;;10.93;3.15;;;;;;;7.65;80.99;101464.94;5035397;28;20057;-60
2023/04/25 11:12:32;;;;;;;11.27;3.08;;;;;;;7.63;82.65;101467.06;5049111;28;20063;-62
2023/04/25 11:15:05;;;;;;;9.00;2.85;;;;;;;7.62;80.03;101468.09;5053673;28;20073;-61
2023/04/25 11:17:35;;;;;;;6.30;2.25;;;;;;;7.69;83.41;101476.13;5052257;28;20115;-61
2023/04/25 11:20:07;;;;;;;9.82;2.80;;;;;;;7.72;78.86;101469.41;5038128;28;20127;-60
2023/04/25 11:22:35;;;;;;;10.18;3.10;;;;;;;7.73;79.61;101474.63;5051983;28;20503;-61
2023/04/25 11:25:07;;;;;;;11.27;3.15;;;;;;;7.78;80.25;101476.63;5042718;28;20125;-62
2023/04/25 11:27:38;;;;;;;9.38;2.97;;;;;;;7.80;80.40;101469.09;5052875;28;20520;-60
2023/04/25 11:30:16;;;;;;;13.20;3.78;;;;;;;7.86;81.46;101470.84;5048167;28;20438;-63
2023/04/25 11:32:44;;;;;;;9.07;2.83;;;;;;;7.91;82.18;101473.69;5053164;28;20191;-61
2023/04/25 11:35:12;;;;;;;10.07;2.97;;;;;;;8.00;81.87;101474.19;5046306;28;20494;-61
2023/04/25 11:37:40;;;;;;;12.35;3.33;;;;;;;8.08;82.37;101477.38;5032000;28;20053;-61
2023/04/25 11:40:11;;;;;;;11.77;3.40;;;;;;;8.10;79.89;101475.28;5042071;28;20049;-62
2023/04/25 11:42:46;;;;;;;13.55;3.22;;;;;;;8.14;76.73;101482.94;5032272;28;20104;-61
2023/04/25 11:45:15;;;;;;;8.27;2.60;;;;;;;8.28;75.66;101481.63;5032907;28;20064;-61
2023/04/25 11:47:43;;;;;;;11.32;3.03;;;;;;;8.35;73.08;101478.81;5031677;28;20037;-62